Time;durP1;ratioP1;P1;durP2;ratioP2;P2;SDS_P1;SDS_P2;PMS_P1;PMS_P2;Temp;Humidity;BMP_temperature;BMP_pressure;BME280_temperature;BME280_humidity;BME280_pressure;Samples;Min_cycle;Max_cycle;Signal;HPM_P1;HPM_P2
2021/10/30 00:01:20;;;;;;;54.95;30.75;;;;;;;6.81;73.42;100904.45;1747786;81;25661;-80
2021/10/30 00:03:47;;;;;;;50.50;29.48;;;;;;;6.77;73.48;100903.58;1717242;81;27495;-79
2021/10/30 00:06:14;;;;;;;51.53;30.50;;;;;;;6.73;73.57;100904.88;1694491;81;26325;-79
2021/10/30 00:08:41;;;;;;;55.40;30.88;;;;;;;6.70;73.56;100910.50;1685214;83;26533;-79
2021/10/30 00:11:08;;;;;;;47.23;29.75;;;;;;;6.62;73.57;100908.63;1748941;81;25815;-79
2021/10/30 00:13:35;;;;;;;52.65;29.32;;;;;;;6.57;73.56;100905.58;1727599;81;26567;-79
2021/10/30 00:16:02;;;;;;;51.10;28.73;;;;;;;6.52;73.62;100908.37;1703653;81;27608;-79
2021/10/30 00:18:30;;;;;;;46.70;28.15;;;;;;;6.47;73.66;100907.49;1696074;81;26666;-80
2021/10/30 00:20:58;;;;;;;48.00;29.75;;;;;;;6.44;73.70;100902.95;1743387;81;25743;-79
2021/10/30 00:23:25;;;;;;;49.35;28.55;;;;;;;6.40;73.70;100897.59;1717222;81;26528;-79
2021/10/30 00:25:52;;;;;;;49.42;30.27;;;;;;;6.37;73.74;100897.92;1697024;81;25773;-80
2021/10/30 00:28:19;;;;;;;52.55;31.10;;;;;;;6.33;73.84;100900.55;1701963;81;28352;-79
2021/10/30 00:30:46;;;;;;;53.20;31.37;;;;;;;6.29;73.88;100902.66;1693304;81;25990;-79
2021/10/30 00:33:13;;;;;;;64.65;32.78;;;;;;;6.28;73.98;100902.33;1725480;81;25890;-79
2021/10/30 00:35:40;;;;;;;66.82;35.55;;;;;;;6.26;74.05;100894.15;1678772;81;26846;-79
2021/10/30 00:38:07;;;;;;;66.12;36.38;;;;;;;6.23;74.04;100890.81;1726346;81;25902;-79
2021/10/30 00:40:34;;;;;;;63.23;32.63;;;;;;;6.23;74.04;100888.15;1748616;81;27564;-79
2021/10/30 00:43:01;;;;;;;59.80;33.65;;;;;;;6.20;73.92;100892.43;1717725;81;26660;-79
2021/10/30 00:45:29;;;;;;;60.08;32.50;;;;;;;6.17;73.90;100889.25;1674570;81;25791;-79
2021/10/30 00:47:56;;;;;;;54.98;31.33;;;;;;;6.13;74.05;100884.73;1697208;83;25955;-79
2021/10/30 00:50:23;;;;;;;51.55;28.57;;;;;;;6.12;74.21;100880.87;1748380;81;26436;-80
2021/10/30 00:52:54;;;;;;;49.90;27.82;;;;;;;6.12;74.45;100886.19;1718750;81;27352;-79
2021/10/30 00:55:28;;;;;;;49.83;30.35;;;;;;;6.13;74.78;100886.06;1696082;81;25973;-79
2021/10/30 00:57:52;;;;;;;;;;;;;;;6.14;74.82;100889.53;1727148;81;26355;-79
2021/10/30 01:00:19;;;;;;;44.08;27.48;;;;;;;6.14;74.93;100889.05;1751427;81;25848;-79
2021/10/30 01:02:46;;;;;;;50.12;29.82;;;;;;;6.12;74.96;100887.03;1693860;81;25811;-79
2021/10/30 01:05:13;;;;;;;51.73;29.30;;;;;;;6.12;75.02;100889.70;1689282;81;27476;-80
2021/10/30 01:07:40;;;;;;;50.15;28.50;;;;;;;6.10;74.92;100894.33;1728036;82;25892;-79
2021/10/30 01:10:08;;;;;;;48.68;28.95;;;;;;;6.00;74.43;100888.73;1701873;82;25887;-80
2021/10/30 01:12:35;;;;;;;49.20;29.25;;;;;;;5.91;74.23;100902.44;1677952;81;25851;-80
2021/10/30 01:15:05;;;;;;;52.45;29.65;;;;;;;5.79;74.07;100898.30;1696183;81;25368;-78
2021/10/30 01:17:34;;;;;;;51.60;30.17;;;;;;;5.74;74.44;100903.69;1750117;81;27486;-79
2021/10/30 01:20:01;;;;;;;49.83;29.25;;;;;;;5.67;74.69;100903.44;1745866;81;26537;-79
2021/10/30 01:22:28;;;;;;;56.55;31.95;;;;;;;5.65;74.88;100906.75;1688665;81;25513;-80
2021/10/30 01:24:55;;;;;;;52.75;30.30;;;;;;;5.64;75.05;100906.41;1726410;81;25860;-79
2021/10/30 01:27:22;;;;;;;48.23;28.75;;;;;;;5.62;75.09;100898.24;1727266;81;26003;-80
2021/10/30 01:29:51;;;;;;;53.13;29.85;;;;;;;5.59;74.96;100897.20;1727641;81;27648;-79
2021/10/30 01:32:20;;;;;;;45.17;27.85;;;;;;;5.56;75.07;100891.67;1677719;81;25796;-79
2021/10/30 01:34:47;;;;;;;46.92;28.23;;;;;;;5.55;75.12;100894.48;1701087;81;26676;-79
2021/10/30 01:37:15;;;;;;;60.25;32.53;;;;;;;5.53;74.95;100895.13;1727146;81;25842;-79
2021/10/30 01:39:42;;;;;;;46.80;29.63;;;;;;;5.50;74.95;100893.59;1702821;81;25863;-79
2021/10/30 01:42:09;;;;;;;52.27;29.42;;;;;;;5.49;75.05;100895.41;1698389;81;27383;-79
2021/10/30 01:44:36;;;;;;;52.30;30.72;;;;;;;5.46;75.15;100890.41;1743401;81;26537;-80
2021/10/30 01:47:04;;;;;;;44.15;27.95;;;;;;;5.44;75.22;100888.39;1675029;83;25796;-79
2021/10/30 01:49:31;;;;;;;48.23;29.80;;;;;;;5.42;75.17;100889.52;1702812;81;25871;-79
2021/10/30 01:51:58;;;;;;;54.60;31.25;;;;;;;5.38;75.08;100882.83;1716678;81;25804;-81
2021/10/30 01:54:25;;;;;;;50.30;31.05;;;;;;;5.37;75.17;100878.00;1719039;82;28085;-80
2021/10/30 01:56:54;;;;;;;50.10;29.07;;;;;;;5.37;75.28;100871.84;1651260;82;26001;-79
2021/10/30 01:59:21;;;;;;;54.05;30.95;;;;;;;5.34;75.13;100868.17;1680841;82;26581;-79
2021/10/30 02:01:48;;;;;;;48.20;30.20;;;;;;;5.34;75.27;100869.50;1704188;82;26193;-79
2021/10/30 02:04:15;;;;;;;55.75;30.50;;;;;;;5.33;75.28;100862.50;1723773;81;25783;-79
2021/10/30 02:06:42;;;;;;;57.15;33.13;;;;;;;5.34;75.37;100873.00;1654224;81;28181;-79
2021/10/30 02:09:09;;;;;;;52.03;30.65;;;;;;;5.35;75.42;100872.00;1690489;81;25889;-79
2021/10/30 02:11:36;;;;;;;52.78;30.32;;;;;;;5.34;75.49;100874.81;1708713;82;25939;-79
2021/10/30 02:14:03;;;;;;;51.48;30.45;;;;;;;5.27;75.03;100873.23;1729881;82;25939;-79
2021/10/30 02:16:30;;;;;;;52.45;30.43;;;;;;;5.19;74.94;100871.80;1663495;82;26713;-79
2021/10/30 02:18:57;;;;;;;51.13;29.57;;;;;;;5.15;75.12;100874.89;1692248;81;27451;-80
2021/10/30 02:21:24;;;;;;;48.58;30.50;;;;;;;5.12;75.15;100876.50;1721495;81;26471;-79
2021/10/30 02:23:51;;;;;;;52.05;31.80;;;;;;;5.08;75.17;100880.42;1729151;82;25840;-79
2021/10/30 02:26:18;;;;;;;46.77;29.05;;;;;;;5.06;75.35;100876.59;1675772;82;25877;-79
2021/10/30 02:28:47;;;;;;;48.00;27.65;;;;;;;5.04;75.27;100863.95;1687651;82;25850;-79
2021/10/30 02:31:16;;;;;;;47.10;27.40;;;;;;;5.00;75.22;100868.38;1702402;81;27594;-79
2021/10/30 02:33:43;;;;;;;55.12;29.82;;;;;;;4.97;75.22;100869.48;1745423;81;25809;-80
2021/10/30 02:36:10;;;;;;;57.62;30.12;;;;;;;4.97;75.40;100877.45;1677149;82;25385;-80
2021/10/30 02:38:37;;;;;;;53.33;29.65;;;;;;;4.96;75.50;100873.63;1702616;81;25856;-79
2021/10/30 02:41:04;;;;;;;57.95;30.97;;;;;;;4.96;75.50;100874.95;1702604;81;25748;-80
2021/10/30 02:43:31;;;;;;;50.55;28.65;;;;;;;4.92;75.48;100876.23;1730012;81;27558;-79
2021/10/30 02:45:58;;;;;;;56.30;31.25;;;;;;;4.88;75.49;100877.47;1702042;81;25943;-79
2021/10/30 02:48:25;;;;;;;51.77;29.60;;;;;;;4.84;75.50;100875.59;1702475;81;25825;-80
2021/10/30 02:50:54;;;;;;;45.83;27.22;;;;;;;4.81;75.49;100874.58;1728335;81;26119;-79
2021/10/30 02:53:20;;;;;;;50.70;28.80;;;;;;;4.77;75.46;100878.98;1746083;81;26552;-79
2021/10/30 02:55:48;;;;;;;53.78;28.65;;;;;;;4.73;75.51;100879.73;1675193;81;27952;-79
2021/10/30 02:58:15;;;;;;;51.95;29.75;;;;;;;4.72;75.67;100877.23;1748011;81;25740;-79
2021/10/30 03:00:42;;;;;;;48.15;28.02;;;;;;;4.74;75.76;100878.77;1690152;83;25761;-79
2021/10/30 03:03:09;;;;;;;49.67;27.87;;;;;;;4.74;75.86;100877.92;1666570;83;25875;-79
2021/10/30 03:05:36;;;;;;;49.00;28.25;;;;;;;4.73;75.79;100879.73;1704276;82;25919;-79
2021/10/30 03:08:03;;;;;;;46.28;27.60;;;;;;;4.72;75.81;100878.56;1743624;81;27539;-79
2021/10/30 03:10:30;;;;;;;53.05;28.87;;;;;;;4.74;75.94;100891.20;1668507;81;25791;-79
2021/10/30 03:12:57;;;;;;;52.53;28.80;;;;;;;4.75;76.08;100889.72;1689464;81;25841;-79
2021/10/30 03:15:24;;;;;;;52.33;29.27;;;;;;;4.76;76.28;100885.25;1692399;83;25919;-79
2021/10/30 03:17:51;;;;;;;51.53;29.67;;;;;;;4.77;76.37;100891.73;1745417;81;25803;-79
2021/10/30 03:20:18;;;;;;;48.98;29.95;;;;;;;4.78;76.42;100896.56;1670674;81;27230;-79
2021/10/30 03:22:45;;;;;;;52.25;30.30;;;;;;;4.76;76.49;100901.17;1723699;81;25481;-79
2021/10/30 03:25:13;;;;;;;56.68;30.32;;;;;;;4.78;76.70;100898.73;1719216;81;26088;-79
2021/10/30 03:27:40;;;;;;;52.67;31.17;;;;;;;4.81;76.71;100901.59;1725541;81;25854;-79
2021/10/30 03:30:08;;;;;;;50.30;30.08;;;;;;;4.83;76.75;100899.16;1702997;81;26452;-79
2021/10/30 03:32:36;;;;;;;56.40;30.57;;;;;;;4.84;76.84;100897.31;1694053;81;27370;-79
2021/10/30 03:35:05;;;;;;;53.33;30.57;;;;;;;4.86;77.02;100894.02;1748755;81;26576;-79
2021/10/30 03:37:34;;;;;;;54.42;31.25;;;;;;;4.88;77.03;100896.05;1727190;81;26531;-79
2021/10/30 03:40:05;;;;;;;56.20;30.62;;;;;;;4.89;77.11;100901.72;1702771;81;26359;-79
2021/10/30 03:42:33;;;;;;;50.88;28.83;;;;;;;4.89;77.19;100898.58;1693081;81;25968;-79
2021/10/30 03:45:03;;;;;;;50.88;29.67;;;;;;;4.88;77.19;100896.89;1725860;81;28358;-79
2021/10/30 03:47:30;;;;;;;49.03;29.67;;;;;;;4.88;77.12;100888.08;1700925;81;25861;-79
2021/10/30 03:49:57;;;;;;;46.77;28.38;;;;;;;4.87;77.20;100895.23;1688135;81;25865;-79
2021/10/30 03:52:24;;;;;;;44.77;28.02;;;;;;;4.87;77.26;100893.06;1687561;81;26486;-80
2021/10/30 03:54:53;;;;;;;48.95;28.40;;;;;;;4.88;77.32;100892.91;1743490;81;25799;-79
2021/10/30 03:57:22;;;;;;;50.12;29.15;;;;;;;4.89;77.33;100885.79;1710011;82;27470;-79
2021/10/30 03:59:49;;;;;;;51.75;30.95;;;;;;;4.88;77.36;100883.62;1683921;82;26661;-79
2021/10/30 04:02:16;;;;;;;54.00;29.65;;;;;;;4.88;77.37;100882.29;1676905;82;25860;-79
2021/10/30 04:04:43;;;;;;;55.75;30.12;;;;;;;4.89;77.38;100889.29;1728763;82;25838;-79
2021/10/30 04:07:10;;;;;;;57.15;32.13;;;;;;;4.90;77.48;100888.80;1680333;82;25962;-78
2021/10/30 04:09:39;;;;;;;58.87;36.93;;;;;;;4.91;77.42;100885.16;1701949;81;28310;-80
2021/10/30 04:12:07;;;;;;;62.10;36.23;;;;;;;4.92;77.49;100888.98;1658491;83;26084;-79
2021/10/30 04:14:34;;;;;;;48.73;30.95;;;;;;;4.90;77.30;100888.80;1746771;81;25735;-79
2021/10/30 04:17:03;;;;;;;56.42;32.33;;;;;;;4.85;77.27;100886.58;1703687;82;25944;-80
2021/10/30 04:19:31;;;;;;;55.65;31.25;;;;;;;4.83;77.24;100883.23;1701932;81;25864;-79
2021/10/30 04:22:03;;;;;;;57.38;32.45;;;;;;;4.82;77.27;100882.02;1690988;82;27148;-80
2021/10/30 04:24:30;;;;;;;53.70;29.63;;;;;;;4.82;77.37;100880.22;1716087;81;26518;-79
2021/10/30 04:26:57;;;;;;;58.02;32.05;;;;;;;4.84;77.47;100882.72;1707451;82;25997;-79
2021/10/30 04:29:25;;;;;;;51.13;31.00;;;;;;;4.83;77.49;100879.25;1712465;82;25896;-79
2021/10/30 04:31:54;;;;;;;52.70;30.50;;;;;;;4.83;77.47;100879.73;1704541;82;26281;-80
2021/10/30 04:34:23;;;;;;;53.60;31.40;;;;;;;4.81;77.33;100879.88;1746586;81;28430;-79
2021/10/30 04:36:55;;;;;;;52.40;30.05;;;;;;;4.80;77.39;100876.87;1717680;81;26614;-79
2021/10/30 04:39:19;;;;;;;53.68;30.68;;;;;;;4.78;77.33;100879.31;1725651;81;25902;-79
2021/10/30 04:41:46;;;;;;;53.60;30.48;;;;;;;4.78;77.41;100876.17;1692796;81;26622;-79
2021/10/30 04:44:13;;;;;;;53.42;29.48;;;;;;;4.75;77.32;100877.77;1726941;81;25502;-80
2021/10/30 04:46:40;;;;;;;52.43;29.67;;;;;;;4.73;77.39;100875.75;1701469;81;27733;-80
2021/10/30 04:49:08;;;;;;;55.28;30.68;;;;;;;4.73;77.56;100872.30;1701278;81;25923;-79
2021/10/30 04:51:36;;;;;;;49.83;28.98;;;;;;;4.72;77.61;100879.41;1708365;81;25920;-79
2021/10/30 04:54:03;;;;;;;52.27;29.25;;;;;;;4.72;77.56;100874.09;1718913;82;25991;-79
2021/10/30 04:56:30;;;;;;;52.38;29.18;;;;;;;4.72;77.56;100877.23;1701938;81;26419;-79
2021/10/30 04:58:57;;;;;;;49.70;28.47;;;;;;;4.72;77.59;100872.77;1720178;81;27691;-79
2021/10/30 05:01:24;;;;;;;44.30;27.60;;;;;;;4.71;77.60;100867.10;1724760;81;26405;-79
2021/10/30 05:03:51;;;;;;;52.83;28.38;;;;;;;4.69;77.58;100870.39;1702513;83;25749;-80
2021/10/30 05:06:19;;;;;;;57.88;30.75;;;;;;;4.68;77.61;100868.22;1695115;81;26979;-80
2021/10/30 05:08:47;;;;;;;56.80;31.23;;;;;;;4.68;77.67;100868.73;1727068;81;25868;-79
2021/10/30 05:11:14;;;;;;;58.25;33.50;;;;;;;4.66;77.66;100870.18;1703231;83;28318;-80
2021/10/30 05:13:41;;;;;;;62.67;34.30;;;;;;;4.64;77.73;100876.63;1732386;82;26435;-81
2021/10/30 05:16:08;;;;;;;55.43;30.52;;;;;;;4.62;77.66;100871.93;1702399;81;26528;-80
2021/10/30 05:18:35;;;;;;;49.50;28.87;;;;;;;4.62;77.77;100879.41;1685343;81;26193;-80
2021/10/30 05:21:02;;;;;;;53.65;29.67;;;;;;;4.60;77.83;100874.73;1720108;81;25948;-80
2021/10/30 05:23:29;;;;;;;53.87;28.47;;;;;;;4.60;77.85;100880.04;1722620;82;27568;-79
2021/10/30 05:25:56;;;;;;;45.65;27.07;;;;;;;4.61;77.83;100876.91;1742768;81;25949;-80
2021/10/30 05:28:24;;;;;;;57.30;29.10;;;;;;;4.60;77.78;100873.89;1718331;81;25967;-80
2021/10/30 05:30:51;;;;;;;57.48;27.82;;;;;;;4.60;77.75;100873.89;1695291;81;26559;-79
2021/10/30 05:33:19;;;;;;;50.78;29.87;;;;;;;4.59;77.77;100872.23;1727495;81;25795;-79
2021/10/30 05:36:05;;;;;;;49.60;28.47;;;;;;;4.60;77.73;100876.06;1700901;81;27474;-80
2021/10/30 05:38:52;;;;;;;47.67;28.62;;;;;;;4.60;77.72;100879.19;1709139;81;26668;-80
2021/10/30 05:41:19;;;;;;;52.25;31.02;;;;;;;4.59;77.88;100873.08;1695196;81;26217;-81
2021/10/30 05:43:46;;;;;;;51.23;29.00;;;;;;;4.59;77.84;100869.58;1749757;81;25966;-80
2021/10/30 05:46:14;;;;;;;47.48;29.70;;;;;;;4.59;77.86;100874.88;1696835;81;25346;-80
2021/10/30 05:48:41;;;;;;;48.15;30.00;;;;;;;4.58;77.89;100872.71;1720517;81;27597;-79
2021/10/30 05:51:08;;;;;;;49.58;29.25;;;;;;;4.57;77.87;100879.02;1699641;82;25910;-79
2021/10/30 05:53:35;;;;;;;57.60;30.80;;;;;;;4.57;77.90;100883.47;1748805;81;26704;-80
2021/10/30 05:56:03;;;;;;;59.73;32.80;;;;;;;4.58;77.99;100879.34;1704192;82;26331;-80
2021/10/30 05:58:30;;;;;;;59.55;33.58;;;;;;;4.57;77.92;100883.00;1701839;81;26496;-80
2021/10/30 06:00:57;;;;;;;61.37;33.35;;;;;;;4.57;78.00;100880.82;1695078;81;27552;-80
2021/10/30 06:03:24;;;;;;;62.48;33.78;;;;;;;4.57;78.00;100884.80;1750712;81;25772;-80
2021/10/30 06:05:51;;;;;;;64.22;34.18;;;;;;;4.57;78.07;100886.12;1705174;81;25797;-80
2021/10/30 06:08:18;;;;;;;74.05;35.98;;;;;;;4.58;78.11;100886.45;1675194;82;26027;-79
2021/10/30 06:10:45;;;;;;;65.17;34.67;;;;;;;4.59;78.18;100895.63;1693554;81;25968;-80
2021/10/30 06:13:12;;;;;;;72.03;36.88;;;;;;;4.60;78.22;100891.98;1723379;82;27185;-80
2021/10/30 06:15:39;;;;;;;64.35;35.15;;;;;;;4.62;78.18;100894.00;1697187;81;26638;-81
2021/10/30 06:18:06;;;;;;;63.17;35.23;;;;;;;4.65;78.28;100898.19;1727879;81;25973;-79
2021/10/30 06:20:33;;;;;;;63.20;34.05;;;;;;;4.66;78.30;100900.69;1710575;81;25833;-80
2021/10/30 06:23:02;;;;;;;58.35;32.17;;;;;;;4.68;78.26;100902.72;1747708;80;25859;-80
2021/10/30 06:25:29;;;;;;;57.60;32.45;;;;;;;4.72;78.29;100906.42;1699795;82;28202;-80
2021/10/30 06:27:56;;;;;;;62.10;35.70;;;;;;;4.73;78.31;100910.25;1690543;82;25833;-80
2021/10/30 06:30:23;;;;;;;53.52;31.27;;;;;;;4.75;78.29;100907.48;1715806;81;26627;-80
2021/10/30 06:32:51;;;;;;;61.90;36.38;;;;;;;4.77;78.33;100912.16;1746959;81;25857;-80
2021/10/30 06:35:19;;;;;;;63.08;35.75;;;;;;;4.79;78.31;100912.84;1728199;81;25898;-80
2021/10/30 06:37:46;;;;;;;59.48;34.63;;;;;;;4.81;78.34;100914.87;1717712;81;27539;-80
2021/10/30 06:40:14;;;;;;;64.42;35.88;;;;;;;4.83;78.37;100912.91;1724079;81;25872;-80
2021/10/30 06:42:42;;;;;;;56.75;31.75;;;;;;;4.85;78.36;100918.91;1728202;81;25583;-80
2021/10/30 06:45:10;;;;;;;50.33;31.15;;;;;;;4.87;78.56;100915.62;1728327;81;25966;-80
2021/10/30 06:47:37;;;;;;;58.45;32.05;;;;;;;4.90;78.56;100904.73;1727371;81;25342;-80
2021/10/30 06:50:08;;;;;;;55.52;31.37;;;;;;;4.93;78.67;100903.94;1703483;81;27560;-80
2021/10/30 06:52:38;;;;;;;55.80;31.50;;;;;;;4.98;78.70;100912.81;1746081;81;25937;-79
2021/10/30 06:55:08;;;;;;;52.27;30.80;;;;;;;5.02;78.87;100910.21;1699622;81;26190;-80
2021/10/30 06:57:37;;;;;;;57.93;32.73;;;;;;;5.08;78.95;100912.28;1713001;82;25851;-80
2021/10/30 07:00:08;;;;;;;58.10;31.35;;;;;;;5.11;78.91;100906.19;1728546;82;25733;-80
2021/10/30 07:02:37;;;;;;;55.48;34.15;;;;;;;5.15;78.91;100904.94;1661578;82;55283;-80
2021/10/30 07:05:05;;;;;;;57.08;33.13;;;;;;;5.21;78.98;100904.84;1687439;82;26097;-80
2021/10/30 07:07:32;;;;;;;62.48;34.23;;;;;;;5.26;79.12;100904.74;1705113;81;25793;-80
2021/10/30 07:09:59;;;;;;;70.08;35.50;;;;;;;5.30;79.34;100909.30;1727902;82;25969;-80
2021/10/30 07:12:30;;;;;;;77.40;40.43;;;;;;;5.36;79.41;100910.03;1716162;81;26353;-80
2021/10/30 07:14:57;;;;;;;86.97;46.98;;;;;;;5.42;79.51;100915.60;1674908;81;27473;-80
2021/10/30 07:17:24;;;;;;;70.45;40.92;;;;;;;5.48;79.51;100916.34;1688330;80;25972;-80
2021/10/30 07:19:54;;;;;;;68.60;38.20;;;;;;;5.54;79.60;100916.75;1740218;81;25876;-80
2021/10/30 07:22:21;;;;;;;58.98;33.38;;;;;;;5.60;79.69;100917.48;1718027;81;26473;-80
2021/10/30 07:24:48;;;;;;;50.50;29.00;;;;;;;5.67;79.66;100922.05;1715817;81;26004;-80
2021/10/30 07:27:17;;;;;;;52.33;30.05;;;;;;;5.76;79.85;100923.83;1741054;81;27537;-80
2021/10/30 07:29:47;;;;;;;50.55;30.55;;;;;;;5.83;79.80;100921.41;1743564;81;25913;-79
2021/10/30 07:32:16;;;;;;;53.90;29.52;;;;;;;5.91;79.73;100918.87;1717809;81;32634;-80
2021/10/30 07:34:43;;;;;;;58.73;29.90;;;;;;;5.98;79.75;100922.13;1672814;81;25815;-79
2021/10/30 07:37:10;;;;;;;50.12;30.70;;;;;;;6.07;79.82;100919.88;1717496;81;25779;-80
2021/10/30 07:39:38;;;;;;;47.35;27.22;;;;;;;6.15;79.76;100925.31;1747133;81;27543;-80
2021/10/30 07:42:06;;;;;;;52.58;29.67;;;;;;;6.24;79.75;100924.91;1687445;81;25929;-80
2021/10/30 07:44:39;;;;;;;48.42;27.65;;;;;;;6.33;79.69;100917.84;1673029;80;26589;-80
2021/10/30 07:47:07;;;;;;;50.85;29.48;;;;;;;6.42;79.55;100927.55;1695413;81;26584;-80
2021/10/30 07:49:35;;;;;;;52.62;29.40;;;;;;;6.50;79.65;100927.12;1747271;81;25845;-80
2021/10/30 07:52:06;;;;;;;43.60;26.57;;;;;;;6.60;79.48;100930.56;1715999;81;27352;-81
2021/10/30 07:54:35;;;;;;;47.23;26.90;;;;;;;6.68;79.34;100930.62;1712270;81;26720;-80
2021/10/30 07:57:06;;;;;;;46.55;27.10;;;;;;;6.77;79.34;100927.05;1696984;81;26086;-80
2021/10/30 07:59:33;;;;;;;49.35;29.77;;;;;;;6.86;79.47;100928.77;1721084;81;26543;-79
2021/10/30 08:02:00;;;;;;;49.53;27.60;;;;;;;6.95;79.26;100929.17;1699177;82;25894;-80
2021/10/30 08:04:36;;;;;;;48.80;28.07;;;;;;;7.06;79.11;100933.41;1652061;82;28150;-80
2021/10/30 08:07:04;;;;;;;53.68;27.67;;;;;;;7.16;79.28;100927.99;1711327;81;25823;-80
2021/10/30 08:09:31;;;;;;;49.88;27.95;;;;;;;7.28;79.26;100925.39;1721374;81;25940;-80
2021/10/30 08:11:58;;;;;;;43.92;26.90;;;;;;;7.37;79.04;100929.30;1718909;81;25761;-80
2021/10/30 08:14:25;;;;;;;44.00;27.30;;;;;;;7.46;78.97;100929.66;1702046;81;25305;-79
2021/10/30 08:16:52;;;;;;;41.80;27.20;;;;;;;7.56;78.71;100926.88;1717584;81;27557;-79
2021/10/30 08:19:20;;;;;;;46.02;26.95;;;;;;;7.65;78.71;100920.11;1708385;81;25871;-80
2021/10/30 08:21:47;;;;;;;44.35;25.95;;;;;;;7.74;78.50;100923.64;1703445;81;25900;-80
2021/10/30 08:24:14;;;;;;;46.05;26.17;;;;;;;7.84;78.46;100927.02;1693170;81;25926;-79
2021/10/30 08:26:41;;;;;;;42.15;25.68;;;;;;;7.92;78.16;100919.03;1696155;81;26568;-80
2021/10/30 08:29:08;;;;;;;45.40;25.72;;;;;;;8.02;77.87;100910.91;1750567;81;28204;-80
2021/10/30 08:31:35;;;;;;;43.40;26.82;;;;;;;8.12;77.75;100907.59;1716146;81;25844;-80
2021/10/30 08:34:03;;;;;;;43.20;25.68;;;;;;;8.21;77.90;100906.09;1677028;82;25805;-80
2021/10/30 08:36:30;;;;;;;41.63;24.45;;;;;;;8.30;77.52;100906.97;1726079;81;25843;-80
2021/10/30 08:38:59;;;;;;;46.73;25.82;;;;;;;8.38;77.42;100905.67;1742946;81;25859;-80
2021/10/30 08:41:26;;;;;;;42.95;25.30;;;;;;;8.47;77.17;100901.98;1721424;81;27400;-79
2021/10/30 08:43:53;;;;;;;41.08;24.47;;;;;;;8.56;77.13;100907.67;1675922;81;25494;-80
2021/10/30 08:46:20;;;;;;;40.50;25.75;;;;;;;8.65;77.15;100905.34;1695698;82;25902;-80
2021/10/30 08:48:48;;;;;;;42.90;24.25;;;;;;;8.75;76.77;100899.33;1746449;81;25795;-79
2021/10/30 08:51:15;;;;;;;46.92;25.45;;;;;;;8.84;76.63;100894.32;1702193;82;25734;-80
2021/10/30 08:53:43;;;;;;;39.48;22.60;;;;;;;8.92;76.51;100899.64;1678632;81;27045;-80
2021/10/30 08:56:10;;;;;;;40.40;23.65;;;;;;;9.00;76.16;100896.14;1715925;81;25927;-80
2021/10/30 08:58:37;;;;;;;44.63;23.30;;;;;;;9.08;76.02;100893.45;1746151;81;25306;-80
2021/10/30 09:01:08;;;;;;;41.10;25.23;;;;;;;9.17;75.81;100892.44;1728404;81;26746;-80
2021/10/30 09:03:37;;;;;;;38.92;23.87;;;;;;;9.26;75.76;100894.06;1702787;81;25726;-80
2021/10/30 09:06:05;;;;;;;37.60;22.87;;;;;;;9.34;75.45;100890.87;1727446;81;27497;-80
2021/10/30 09:08:35;;;;;;;38.70;23.50;;;;;;;9.42;75.33;100883.84;1726523;81;25871;-81
2021/10/30 09:11:09;;;;;;;38.23;22.80;;;;;;;9.50;74.92;100879.30;1716107;81;25833;-80
2021/10/30 09:13:38;;;;;;;37.33;22.45;;;;;;;9.58;75.03;100875.24;1728088;81;26454;-80
2021/10/30 09:16:07;;;;;;;38.00;23.47;;;;;;;9.67;74.68;100876.88;1704451;81;26129;-80
2021/10/30 09:18:41;;;;;;;36.33;22.37;;;;;;;9.77;74.43;100876.16;1746250;81;28282;-80
2021/10/30 09:21:19;;;;;;;40.80;25.20;;;;;;;9.88;74.48;100880.31;1725016;82;25740;-80
2021/10/30 09:23:54;;;;;;;47.10;24.18;;;;;;;9.95;73.89;100874.07;1679203;82;26058;-79
2021/10/30 09:26:26;;;;;;;;;;;;;;;10.06;73.90;100875.51;1749361;81;25923;-80
2021/10/30 09:29:09;;;;;;;42.27;25.50;;;;;;;10.13;73.79;100876.52;1743475;81;25761;-80
2021/10/30 09:31:36;;;;;;;40.05;24.30;;;;;;;10.20;73.53;100872.62;1679936;82;27993;-81
2021/10/30 09:34:07;;;;;;;39.10;23.42;;;;;;;10.30;73.62;100875.39;1702356;81;25505;-80
2021/10/30 09:36:38;;;;;;;43.55;25.65;;;;;;;10.39;73.40;100877.50;1703154;82;25740;-81
2021/10/30 09:39:08;;;;;;;;;;;;;;;10.48;73.22;100876.41;1725683;81;25949;-80
2021/10/30 09:41:41;;;;;;;36.50;23.07;;;;;;;10.58;73.16;100868.48;1682255;82;25970;-80
2021/10/30 09:44:18;;;;;;;37.67;21.15;;;;;;;10.64;73.06;100862.40;1736789;81;27536;-81
2021/10/30 09:46:58;;;;;;;37.78;22.50;;;;;;;10.73;72.19;100865.31;1744773;80;25722;-82
2021/10/30 09:49:34;;;;;;;36.95;20.72;;;;;;;10.79;71.89;100851.21;1727060;80;26554;-78
2021/10/30 09:52:11;;;;;;;41.53;23.18;;;;;;;10.90;71.51;100855.80;1728234;80;25870;-78
2021/10/30 09:54:41;;;;;;;34.00;22.05;;;;;;;10.98;71.57;100853.87;1698691;81;25909;-82
2021/10/30 09:57:15;;;;;;;35.83;21.23;;;;;;;11.09;71.15;100852.08;1752815;80;27555;-81
2021/10/30 09:59:45;;;;;;;35.92;21.15;;;;;;;11.17;71.02;100849.30;1737426;81;25292;-82
2021/10/30 10:02:14;;;;;;;34.03;21.97;;;;;;;11.25;70.96;100849.20;1676852;81;25919;-82
2021/10/30 10:04:42;;;;;;;38.02;21.40;;;;;;;11.33;69.88;100841.59;1717699;81;25823;-82
2021/10/30 10:07:11;;;;;;;35.85;20.90;;;;;;;11.39;69.71;100840.34;1743952;80;25293;-81
2021/10/30 10:09:39;;;;;;;36.35;22.30;;;;;;;11.48;69.95;100841.08;1703864;82;27395;-80
2021/10/30 10:12:09;;;;;;;33.33;21.07;;;;;;;11.56;69.92;100844.98;1727247;81;25809;-81
2021/10/30 10:14:40;;;;;;;33.70;20.00;;;;;;;11.63;69.74;100845.38;1696866;81;25786;-81
2021/10/30 10:17:07;;;;;;;;;;;;;;;11.73;69.42;100838.92;1726894;82;25785;-82
2021/10/30 10:19:36;;;;;;;28.55;18.62;;;;;;;11.80;68.80;100838.00;1719642;81;25806;-81
2021/10/30 10:22:04;;;;;;;31.20;19.60;;;;;;;11.84;68.96;100833.08;1695715;81;28113;-82
2021/10/30 10:24:35;;;;;;;36.58;21.12;;;;;;;11.92;68.97;100828.93;1717012;81;25802;-82
2021/10/30 10:27:08;;;;;;;34.60;21.48;;;;;;;12.01;68.67;100837.19;1744939;81;26528;-82
2021/10/30 10:29:41;;;;;;;32.05;19.00;;;;;;;12.07;68.37;100841.80;1690426;81;25959;-81
2021/10/30 10:32:24;;;;;;;34.03;19.15;;;;;;;12.15;67.93;100837.14;1697635;80;25558;-82
2021/10/30 10:34:52;;;;;;;35.28;19.90;;;;;;;12.24;66.83;100827.94;1724986;81;27448;-82
2021/10/30 10:37:24;;;;;;;28.12;19.12;;;;;;;12.33;67.15;100824.11;1688233;82;25737;-82
2021/10/30 10:40:00;;;;;;;31.23;18.57;;;;;;;12.42;66.95;100819.44;1655159;82;26582;-82
2021/10/30 10:42:42;;;;;;;31.50;18.57;;;;;;;12.51;67.01;100825.50;1679879;82;25895;-82
2021/10/30 10:45:15;;;;;;;29.60;17.32;;;;;;;12.58;67.01;100813.77;1709792;82;25868;-82
2021/10/30 10:47:49;;;;;;;36.65;21.42;;;;;;;12.68;66.51;100812.11;1720409;81;27562;-82
2021/10/30 10:50:29;;;;;;;34.43;20.23;;;;;;;12.74;66.77;100804.09;1746797;81;25780;-82
2021/10/30 10:53:15;;;;;;;28.50;19.73;;;;;;;12.79;66.59;100800.28;1719604;81;25763;-82
2021/10/30 10:55:50;;;;;;;34.58;20.05;;;;;;;12.87;66.31;100802.00;1746715;81;25784;-82
2021/10/30 10:58:17;;;;;;;32.03;21.02;;;;;;;12.94;66.42;100804.20;1742418;80;25914;-84
2021/10/30 11:01:11;;;;;;;28.55;20.25;;;;;;;13.00;66.05;100790.00;1698289;81;28652;-81
2021/10/30 11:03:45;;;;;;;44.98;20.48;;;;;;;13.06;66.17;100793.27;1718645;81;26090;-81
2021/10/30 11:06:13;;;;;;;30.52;17.80;;;;;;;13.15;65.55;100793.42;1745555;81;25783;-82
2021/10/30 11:08:40;;;;;;;35.33;19.57;;;;;;;13.22;65.59;100797.47;1683691;81;26698;-82
2021/10/30 11:11:18;;;;;;;34.78;19.87;;;;;;;13.26;65.71;100787.46;1718875;81;25769;-81
2021/10/30 11:13:59;;;;;;;33.40;21.87;;;;;;;13.32;65.27;100785.85;1689758;81;28263;-82
2021/10/30 11:16:35;;;;;;;;;;;;;;;13.39;65.01;100778.61;1724606;82;26547;-81
2021/10/30 11:19:10;;;;;;;27.00;18.32;;;;;;;13.45;65.00;100770.57;1721689;82;26348;-81
2021/10/30 11:21:43;;;;;;;42.25;20.82;;;;;;;13.52;64.94;100769.25;1753339;81;26210;-82
2021/10/30 11:24:23;;;;;;;40.48;22.07;;;;;;;13.59;64.87;100764.23;1750372;81;26087;-82